createdAt,value
2022-12-11T00:01:21.881Z,145.80
2022-12-11T00:03:49.360Z,124.60
2022-12-11T00:06:20.190Z,127.35
2022-12-11T00:08:50.776Z,121.18
2022-12-11T00:11:18.366Z,127.85
2022-12-11T00:13:45.897Z,124.45
2022-12-11T00:16:13.948Z,116.43
2022-12-11T00:18:41.463Z,130.98
2022-12-11T00:21:13.591Z,106.55
2022-12-11T00:23:41.664Z,108.50
2022-12-11T00:26:13.783Z,119.28
2022-12-11T00:28:41.570Z,128.48
2022-12-11T00:31:13.912Z,114.32
2022-12-11T00:33:43.078Z,122.63
2022-12-11T00:36:17.108Z,101.90
2022-12-11T00:38:44.701Z,122.38
2022-12-11T00:41:12.302Z,144.30
2022-12-11T00:43:39.880Z,131.82
2022-12-11T00:46:07.979Z,136.75
2022-12-11T00:48:36.450Z,129.13
2022-12-11T00:51:04.128Z,136.27
2022-12-11T00:53:31.854Z,133.15
2022-12-11T00:55:59.299Z,121.63
2022-12-11T00:58:26.819Z,139.57
2022-12-11T01:00:54.500Z,120.15
2022-12-11T01:03:22.039Z,112.50
2022-12-11T01:05:54.322Z,113.03
2022-12-11T01:08:22.074Z,113.13
2022-12-11T01:10:49.879Z,109.75
2022-12-11T01:13:17.436Z,120.00
2022-12-11T01:15:46.022Z,121.78
2022-12-11T01:18:15.297Z,113.00
2022-12-11T01:20:43.712Z,104.00
2022-12-11T01:23:13.229Z,114.32
2022-12-11T01:25:42.383Z,109.43
2022-12-11T01:28:10.585Z,113.20
2022-12-11T01:30:38.126Z,104.30
2022-12-11T01:33:05.881Z,103.68
2022-12-11T01:35:33.411Z,96.72
2022-12-11T01:38:01.190Z,93.95
2022-12-11T01:40:29.155Z,90.07
2022-12-11T01:42:56.651Z,107.65
2022-12-11T01:45:40.599Z,110.97
2022-12-11T01:48:16.035Z,90.63
2022-12-11T01:51:05.079Z,87.22
2022-12-11T01:53:38.324Z,98.78
2022-12-11T01:56:08.349Z,84.05
2022-12-11T01:58:44.177Z,86.60
2022-12-11T02:01:17.013Z,95.68
2022-12-11T02:03:44.493Z,90.85
2022-12-11T02:06:52.006Z,80.40
2022-12-11T02:09:35.190Z,83.40
2022-12-11T02:12:13.045Z,79.10
2022-12-11T02:15:29.495Z,80.03
2022-12-11T02:18:25.547Z,97.97
2022-12-11T02:21:18.608Z,94.95
2022-12-11T02:24:16.972Z,84.88
2022-12-11T02:30:10.413Z,71.63
2022-12-11T02:32:54.738Z,72.22
2022-12-11T02:35:32.363Z,83.53
2022-12-11T02:38:24.464Z,73.85
2022-12-11T02:40:54.757Z,88.38
2022-12-11T02:43:23.713Z,79.22
2022-12-11T02:45:52.391Z,86.75
2022-12-11T02:48:22.690Z,77.82
2022-12-11T02:50:56.387Z,66.00
2022-12-11T02:53:28.916Z,72.80
2022-12-11T02:56:20.837Z,68.97
2022-12-11T02:58:59.763Z,69.38
2022-12-11T03:01:27.857Z,59.63
2022-12-11T03:03:56.636Z,71.32
2022-12-11T03:06:37.358Z,64.85
2022-12-11T03:09:05.717Z,58.78
2022-12-11T03:11:33.243Z,65.60
2022-12-11T03:14:02.916Z,69.65
2022-12-11T03:16:59.151Z,64.22
2022-12-11T03:19:38.587Z,67.85
2022-12-11T03:22:10.774Z,59.67
2022-12-11T03:24:58.487Z,59.00
2022-12-11T03:27:58.791Z,56.92
2022-12-11T03:30:28.850Z,58.70
2022-12-11T03:32:58.143Z,51.35
2022-12-11T03:35:53.548Z,56.70
2022-12-11T03:38:40.905Z,53.58
2022-12-11T03:41:09.148Z,57.45
2022-12-11T03:43:38.633Z,58.17
2022-12-11T03:46:08.721Z,60.80
2022-12-11T03:48:40.530Z,45.47
2022-12-11T03:51:09.290Z,50.25
2022-12-11T03:53:38.609Z,52.08
2022-12-11T03:56:09.106Z,48.40
2022-12-11T03:58:36.772Z,46.58
2022-12-11T04:01:08.269Z,46.40
2022-12-11T04:03:35.777Z,52.88
2022-12-11T04:06:03.315Z,44.42
2022-12-11T04:08:30.860Z,44.72
2022-12-11T04:11:16.788Z,46.70
2022-12-11T04:13:44.225Z,48.50
2022-12-11T04:16:11.870Z,42.25
2022-12-11T04:18:58.174Z,38.80
2022-12-11T04:21:44.934Z,40.30
2022-12-11T04:24:15.209Z,37.42
2022-12-11T04:26:45.470Z,36.92
2022-12-11T04:29:13.622Z,29.50
2022-12-11T04:31:41.234Z,35.30
2022-12-11T04:34:08.834Z,35.03
2022-12-11T04:36:36.322Z,28.80
2022-12-11T04:39:04.854Z,32.40
2022-12-11T04:41:32.389Z,32.78
2022-12-11T04:43:59.877Z,25.77
2022-12-11T04:46:27.396Z,26.98
2022-12-11T04:48:57.659Z,27.23
2022-12-11T04:51:26.511Z,24.77
2022-12-11T04:53:55.495Z,23.73
2022-12-11T04:56:23.471Z,26.92
2022-12-11T04:58:50.876Z,27.42
2022-12-11T05:01:22.647Z,23.00
2022-12-11T05:03:50.321Z,26.77
2022-12-11T05:06:18.061Z,21.58
2022-12-11T05:08:45.572Z,23.33
2022-12-11T05:11:15.608Z,27.38
2022-12-11T05:13:44.067Z,26.73
2022-12-11T05:16:14.519Z,22.83
2022-12-11T05:18:42.369Z,28.23
2022-12-11T05:21:13.479Z,23.02
2022-12-11T05:23:41.231Z,24.25
2022-12-11T05:26:14.632Z,22.45
2022-12-11T05:28:42.475Z,22.55
2022-12-11T05:31:15.834Z,25.70
2022-12-11T05:33:44.241Z,22.38
2022-12-11T05:36:21.579Z,22.95
2022-12-11T05:38:49.689Z,27.95
2022-12-11T05:41:20.295Z,20.60
2022-12-11T05:43:48.501Z,22.77
2022-12-11T05:46:25.245Z,23.63
2022-12-11T05:48:55.951Z,19.05
2022-12-11T05:51:24.041Z,23.88
2022-12-11T05:53:53.222Z,22.35
2022-12-11T05:56:26.569Z,23.58
2022-12-11T05:58:54.718Z,25.40
2022-12-11T06:01:29.593Z,21.83
2022-12-11T06:03:58.041Z,22.77
2022-12-11T06:06:26.617Z,22.55
2022-12-11T06:08:56.049Z,23.67
2022-12-11T06:11:25.021Z,21.90
2022-12-11T06:13:53.096Z,25.42
2022-12-11T06:16:21.800Z,28.48
2022-12-11T06:18:49.709Z,28.17
2022-12-11T06:21:24.708Z,26.42
2022-12-11T06:23:54.084Z,25.38
2022-12-11T06:26:21.949Z,23.98
2022-12-11T06:28:50.029Z,27.92
2022-12-11T06:31:18.982Z,27.60
2022-12-11T06:33:47.394Z,25.58
2022-12-11T06:36:20.943Z,25.83
2022-12-11T06:38:48.683Z,26.92
2022-12-11T06:41:16.362Z,28.88
2022-12-11T06:43:44.415Z,23.80
2022-12-11T06:46:19.149Z,24.88
2022-12-11T06:48:48.004Z,23.67
2022-12-11T06:51:22.078Z,26.02
2022-12-11T06:53:56.264Z,25.63
2022-12-11T06:56:24.765Z,24.85
2022-12-11T06:58:53.124Z,22.67
2022-12-11T07:01:24.674Z,21.83
2022-12-11T07:03:57.064Z,25.27
2022-12-11T07:06:26.212Z,23.52
2022-12-11T07:08:54.489Z,26.73
2022-12-11T07:11:22.325Z,23.42
2022-12-11T07:13:50.226Z,24.40
2022-12-11T07:16:18.892Z,23.83
2022-12-11T07:18:51.180Z,24.50
2022-12-11T07:21:20.329Z,23.90
2022-12-11T07:23:48.701Z,22.48
2022-12-11T07:26:20.153Z,25.13
2022-12-11T07:28:47.716Z,23.38
2022-12-11T07:31:20.002Z,24.45
2022-12-11T07:33:47.790Z,23.05
2022-12-11T07:36:16.286Z,22.83
2022-12-11T07:38:43.998Z,20.63
2022-12-11T07:41:14.177Z,19.42
2022-12-11T07:43:42.567Z,25.25
2022-12-11T07:46:17.773Z,27.65
2022-12-11T07:48:46.758Z,22.50
2022-12-11T07:51:28.011Z,22.48
2022-12-11T07:53:59.332Z,23.48
2022-12-11T07:56:28.216Z,24.23
2022-12-11T07:58:56.221Z,25.98
2022-12-11T08:01:26.828Z,23.45
2022-12-11T08:03:55.263Z,21.33
2022-12-11T08:06:31.427Z,22.42
2022-12-11T08:09:00.861Z,22.90
2022-12-11T08:11:29.216Z,19.13
2022-12-11T08:13:56.911Z,23.48
2022-12-11T08:16:24.499Z,20.02
2022-12-11T08:18:52.339Z,24.88
2022-12-11T08:21:22.899Z,20.13
2022-12-11T08:23:51.419Z,21.38
2022-12-11T08:26:26.533Z,17.95
2022-12-11T08:28:54.444Z,21.65
2022-12-11T08:31:22.295Z,24.08
2022-12-11T08:33:50.455Z,21.10
2022-12-11T08:36:21.627Z,23.52
2022-12-11T08:38:50.754Z,20.55
2022-12-11T08:41:28.195Z,30.75
2022-12-11T08:43:57.552Z,21.58
2022-12-11T08:46:31.694Z,24.02
2022-12-11T08:49:00.016Z,24.00
2022-12-11T08:51:29.340Z,25.80
2022-12-11T08:54:00.896Z,23.10
2022-12-11T08:56:29.274Z,23.52
2022-12-11T08:58:59.150Z,21.70
2022-12-11T09:01:28.028Z,25.73
2022-12-11T09:03:56.743Z,23.17
2022-12-11T09:06:27.287Z,21.15
2022-12-11T09:08:56.028Z,25.42
2022-12-11T09:11:28.400Z,27.25
2022-12-11T09:13:56.254Z,26.75
2022-12-11T09:16:25.741Z,24.33
2022-12-11T09:18:57.674Z,25.90
2022-12-11T09:21:29.169Z,26.90
2022-12-11T09:24:00.619Z,26.45
2022-12-11T09:26:30.244Z,28.80
2022-12-11T09:28:58.179Z,27.88
2022-12-11T09:31:30.401Z,26.00
2022-12-11T09:34:01.792Z,25.17
2022-12-11T09:36:29.960Z,22.77
2022-12-11T09:39:01.912Z,23.88
2022-12-11T09:41:33.981Z,23.73
2022-12-11T09:44:54.068Z,22.88
2022-12-11T09:47:38.524Z,25.45
2022-12-11T09:50:17.365Z,23.88
2022-12-11T09:52:47.896Z,24.42
2022-12-11T09:55:25.366Z,21.27
2022-12-11T09:59:18.782Z,23.58
2022-12-11T10:02:04.453Z,23.27
2022-12-11T10:05:02.582Z,20.60
2022-12-11T10:08:06.060Z,26.58
2022-12-11T10:10:44.015Z,24.65
2022-12-11T10:14:14.610Z,24.90
2022-12-11T10:16:49.462Z,21.23
2022-12-11T10:19:30.663Z,21.15
2022-12-11T10:21:59.906Z,20.60
2022-12-11T10:25:12.596Z,22.35
2022-12-11T10:27:41.451Z,21.92
2022-12-11T10:30:34.398Z,22.85
2022-12-11T10:33:27.433Z,19.77
2022-12-11T10:35:57.936Z,21.27
2022-12-11T10:38:33.255Z,22.90
2022-12-11T10:41:11.391Z,24.83
2022-12-11T10:43:40.283Z,22.90
2022-12-11T10:46:26.374Z,25.30
2022-12-11T10:48:59.491Z,23.42
2022-12-11T10:51:36.375Z,22.98
2022-12-11T10:54:30.462Z,24.55
2022-12-11T10:56:59.190Z,22.27
2022-12-11T10:59:38.734Z,24.42
2022-12-11T11:02:18.475Z,27.50
2022-12-11T11:04:46.291Z,28.85
2022-12-11T11:07:30.335Z,25.38
2022-12-11T11:10:13.456Z,22.52
2022-12-11T11:12:47.401Z,23.67
2022-12-11T11:15:28.325Z,24.30
2022-12-11T11:18:00.910Z,25.50
2022-12-11T11:20:31.470Z,26.27
2022-12-11T11:23:04.991Z,23.30
2022-12-11T11:25:33.653Z,24.20
2022-12-11T11:28:05.319Z,27.10
2022-12-11T11:30:38.442Z,22.75
2022-12-11T11:33:23.581Z,24.10
2022-12-11T11:35:57.837Z,24.63
2022-12-11T11:38:44.485Z,22.85
2022-12-11T11:41:25.627Z,17.43
2022-12-11T11:43:57.948Z,29.88
2022-12-11T11:46:32.199Z,21.73
2022-12-11T11:49:13.058Z,21.08
2022-12-11T11:51:57.813Z,24.30
2022-12-11T11:54:37.261Z,22.15
2022-12-11T11:57:39.817Z,27.95
2022-12-11T12:00:22.252Z,21.25
2022-12-11T12:02:59.586Z,23.10
2022-12-11T12:05:54.735Z,28.30
2022-12-11T12:08:52.573Z,24.50
2022-12-11T12:12:15.489Z,23.20
2022-12-11T12:15:25.774Z,22.10
2022-12-11T12:17:55.963Z,22.50
2022-12-11T12:20:55.750Z,24.10
2022-12-11T12:24:05.217Z,24.45
2022-12-11T12:26:37.292Z,20.75
2022-12-11T12:29:26.050Z,24.25
2022-12-11T12:32:44.123Z,24.08
2022-12-11T12:35:37.231Z,21.60
2022-12-11T12:38:18.599Z,20.02
2022-12-11T12:41:29.312Z,20.45
2022-12-11T12:44:15.789Z,21.67
2022-12-11T12:46:54.171Z,20.38
2022-12-11T12:49:42.085Z,21.75
2022-12-11T12:52:37.288Z,19.17
2022-12-11T12:55:22.855Z,18.27
2022-12-11T12:58:00.574Z,30.90
2022-12-11T13:00:28.046Z,20.35
2022-12-11T13:02:56.363Z,23.05
2022-12-11T13:05:29.496Z,20.33
2022-12-11T13:08:05.178Z,19.80
2022-12-11T13:10:39.175Z,20.25
2022-12-11T13:13:26.015Z,22.25
2022-12-11T13:15:53.511Z,18.13
2022-12-11T13:18:39.685Z,21.02
2022-12-11T13:21:40.929Z,15.90
2022-12-11T13:24:21.613Z,18.77
2022-12-11T13:26:50.769Z,21.35
2022-12-11T13:29:45.019Z,24.73
2022-12-11T13:32:18.172Z,24.20
2022-12-11T13:35:05.512Z,23.35
2022-12-11T13:37:44.291Z,25.13
2022-12-11T13:40:27.756Z,20.25
2022-12-11T13:43:10.140Z,20.23
2022-12-11T13:45:48.914Z,21.63
2022-12-11T13:48:27.630Z,21.25
2022-12-11T13:50:57.715Z,20.63
2022-12-11T13:53:25.414Z,22.20
2022-12-11T13:56:06.992Z,21.73
2022-12-11T13:58:43.179Z,23.63
2022-12-11T14:01:42.998Z,22.90
2022-12-11T14:04:16.163Z,27.27
2022-12-11T14:06:43.964Z,23.45
2022-12-11T14:09:23.671Z,21.75
2022-12-11T14:11:56.743Z,21.75
2022-12-11T14:14:54.973Z,19.33
2022-12-11T14:17:30.452Z,19.67
2022-12-11T14:20:01.593Z,24.65
2022-12-11T14:22:30.619Z,21.85
2022-12-11T14:25:16.840Z,20.73
2022-12-11T14:27:53.832Z,18.90
2022-12-11T14:30:33.354Z,15.70
2022-12-11T14:33:05.229Z,19.67
2022-12-11T14:35:41.709Z,23.83
2022-12-11T14:38:30.648Z,22.40
2022-12-11T14:41:05.417Z,22.42
2022-12-11T14:43:48.211Z,23.73
2022-12-11T14:46:24.829Z,21.70
2022-12-11T14:49:02.539Z,24.23
2022-12-11T14:51:35.997Z,21.42
2022-12-11T14:54:04.231Z,25.27
2022-12-11T14:56:32.541Z,23.60
2022-12-11T14:59:06.267Z,23.50
2022-12-11T15:01:36.963Z,21.98
2022-12-11T15:04:20.254Z,27.25
2022-12-11T15:06:50.745Z,22.45
2022-12-11T15:09:29.056Z,22.00
2022-12-11T15:12:16.280Z,20.98
2022-12-11T15:15:03.624Z,19.85
2022-12-11T15:17:31.428Z,26.73
2022-12-11T15:20:08.918Z,21.23
2022-12-11T15:22:37.104Z,25.75
2022-12-11T15:25:05.924Z,25.17
2022-12-11T15:27:37.508Z,21.73
2022-12-11T15:30:28.517Z,26.25
2022-12-11T15:33:22.224Z,25.63
2022-12-11T15:36:05.752Z,25.33
2022-12-11T15:38:40.795Z,20.30
2022-12-11T15:41:25.933Z,19.52
2022-12-11T15:43:58.851Z,21.55
2022-12-11T15:46:27.829Z,22.05
2022-12-11T15:48:56.979Z,20.05
2022-12-11T15:51:25.337Z,21.90
2022-12-11T15:53:52.964Z,18.85
2022-12-11T15:56:20.523Z,19.73
2022-12-11T15:58:49.112Z,20.65
2022-12-11T16:01:16.608Z,21.05
2022-12-11T16:03:44.156Z,20.20
2022-12-11T16:06:13.608Z,19.55
2022-12-11T16:08:41.065Z,21.50
2022-12-11T16:11:12.340Z,17.85
2022-12-11T16:13:40.020Z,18.58
2022-12-11T16:16:07.749Z,19.75
2022-12-11T16:18:35.301Z,17.00
2022-12-11T16:21:06.432Z,19.48
2022-12-11T16:23:33.904Z,16.67
2022-12-11T16:26:09.209Z,19.27
2022-12-11T16:28:36.719Z,18.95
2022-12-11T16:31:09.794Z,16.77
2022-12-11T16:33:37.735Z,21.23
2022-12-11T16:36:17.800Z,19.17
2022-12-11T16:38:53.133Z,18.17
2022-12-11T16:41:21.225Z,18.75
2022-12-11T16:43:48.761Z,18.40
2022-12-11T16:46:22.104Z,17.52
2022-12-11T16:48:49.911Z,18.27
2022-12-11T16:51:17.996Z,21.85
2022-12-11T16:53:46.217Z,21.17
2022-12-11T16:56:13.638Z,20.60
2022-12-11T16:58:41.095Z,17.42
2022-12-11T17:01:13.394Z,16.02
2022-12-11T17:03:42.365Z,16.95
2022-12-11T17:06:12.224Z,18.33
2022-12-11T17:08:39.932Z,15.60
2022-12-11T17:11:10.002Z,17.67
2022-12-11T17:13:38.460Z,19.35
2022-12-11T17:16:09.404Z,16.85
2022-12-11T17:18:37.567Z,18.05
2022-12-11T17:21:13.319Z,17.83
2022-12-11T17:23:41.566Z,17.13
2022-12-11T17:26:10.114Z,17.42
2022-12-11T17:28:38.615Z,17.90
2022-12-11T17:31:08.460Z,18.90
2022-12-11T17:33:36.221Z,16.52
2022-12-11T17:36:06.431Z,16.95
2022-12-11T17:38:34.202Z,17.23
2022-12-11T17:41:04.975Z,17.48
2022-12-11T17:43:32.387Z,16.75
2022-12-11T17:45:59.968Z,18.45
2022-12-11T17:48:28.005Z,16.75
2022-12-11T17:50:55.801Z,15.10
2022-12-11T17:53:24.254Z,15.60
2022-12-11T17:55:52.134Z,18.13
2022-12-11T17:58:22.968Z,20.85
2022-12-11T18:00:54.238Z,18.23
2022-12-11T18:03:22.592Z,19.88
2022-12-11T18:05:53.005Z,21.73
2022-12-11T18:08:26.073Z,20.88
2022-12-11T18:10:54.401Z,20.92
2022-12-11T18:13:22.938Z,22.15
2022-12-11T18:16:17.912Z,20.55
2022-12-11T18:18:46.483Z,22.17
2022-12-11T18:21:18.610Z,27.83
2022-12-11T18:23:46.610Z,23.25
2022-12-11T18:26:17.361Z,25.77
2022-12-11T18:28:45.924Z,21.25
2022-12-11T18:31:14.020Z,21.45
2022-12-11T18:33:43.735Z,22.58
2022-12-11T18:36:13.945Z,24.50
2022-12-11T18:38:43.142Z,23.45
2022-12-11T18:41:13.131Z,20.95
2022-12-11T18:43:41.180Z,26.58
2022-12-11T18:46:14.023Z,27.67
2022-12-11T18:48:43.177Z,34.60
2022-12-11T18:51:17.683Z,25.88
2022-12-11T18:53:45.613Z,28.75
2022-12-11T18:56:18.641Z,25.00
2022-12-11T18:58:47.129Z,26.83
2022-12-11T19:01:23.821Z,27.23
2022-12-11T19:03:55.375Z,24.70
2022-12-11T19:06:30.103Z,27.05
2022-12-11T19:08:58.278Z,23.10
2022-12-11T19:11:28.227Z,23.30
2022-12-11T19:13:59.232Z,30.05
2022-12-11T19:16:36.582Z,28.83
2022-12-11T19:19:14.950Z,24.27
2022-12-11T19:21:43.208Z,24.48
2022-12-11T19:24:16.259Z,28.00
2022-12-11T19:26:43.923Z,23.67
2022-12-11T19:29:18.805Z,24.55
2022-12-11T19:31:46.651Z,29.92
2022-12-11T19:34:14.401Z,26.50
2022-12-11T19:36:41.932Z,26.15
2022-12-11T19:39:13.011Z,33.10
2022-12-11T19:41:42.041Z,28.40
2022-12-11T19:44:09.643Z,29.55
2022-12-11T19:46:37.764Z,25.25
2022-12-11T19:49:07.325Z,23.73
2022-12-11T19:51:40.875Z,24.52
2022-12-11T19:54:15.287Z,25.88
2022-12-11T19:56:43.411Z,26.33
2022-12-11T19:59:16.609Z,25.73
2022-12-11T20:01:46.719Z,22.40
2022-12-11T20:04:16.604Z,27.95
2022-12-11T20:06:46.392Z,23.13
2022-12-11T20:09:15.639Z,26.60
2022-12-11T20:11:44.859Z,25.27
2022-12-11T20:14:21.894Z,25.52
2022-12-11T20:19:37.030Z,27.55
2022-12-11T20:22:04.589Z,24.25
2022-12-11T20:24:32.155Z,31.50
2022-12-11T20:27:00.149Z,22.88
2022-12-11T20:29:29.037Z,27.85
2022-12-11T20:31:57.637Z,24.02
2022-12-11T20:34:25.348Z,24.60
2022-12-11T20:36:53.020Z,25.08
2022-12-11T20:39:20.621Z,24.60
2022-12-11T20:41:48.242Z,23.40
2022-12-11T20:44:15.767Z,25.77
2022-12-11T20:46:43.286Z,30.15
2022-12-11T20:49:13.046Z,25.45
2022-12-11T20:51:41.117Z,24.55
2022-12-11T20:54:08.883Z,26.77
2022-12-11T20:56:36.375Z,30.25
2022-12-11T20:59:04.122Z,33.25
2022-12-11T21:01:33.004Z,22.75
2022-12-11T21:04:00.865Z,21.50
2022-12-11T21:06:32.242Z,25.02
2022-12-11T21:09:01.945Z,25.63
2022-12-11T21:11:29.807Z,22.77
2022-12-11T21:13:57.342Z,24.83
2022-12-11T21:16:25.372Z,25.50
2022-12-11T21:18:54.784Z,23.10
2022-12-11T21:21:22.378Z,24.83
2022-12-11T21:23:49.792Z,26.13
2022-12-11T21:26:17.805Z,28.48
2022-12-11T21:28:45.265Z,25.77
2022-12-11T21:31:16.639Z,25.55
2022-12-11T21:33:44.679Z,24.42
2022-12-11T21:36:13.937Z,22.58
2022-12-11T21:38:43.619Z,35.97
2022-12-11T21:41:15.603Z,26.48
2022-12-11T21:44:14.721Z,24.85
2022-12-11T21:46:32.090Z,23.27
2022-12-11T21:49:00.399Z,25.70
2022-12-11T21:51:35.922Z,23.65
2022-12-11T21:54:06.940Z,25.08
2022-12-11T21:56:34.823Z,25.85
2022-12-11T21:59:02.565Z,26.65
2022-12-11T22:01:40.882Z,28.27
2022-12-11T22:04:10.000Z,23.35
2022-12-11T22:06:37.659Z,26.55
2022-12-11T22:09:06.461Z,25.38
2022-12-11T22:11:35.284Z,26.52
2022-12-11T22:14:03.898Z,23.02
2022-12-11T22:16:31.660Z,29.45
2022-12-11T22:18:59.511Z,25.85
2022-12-11T22:21:27.263Z,28.33
2022-12-11T22:23:55.016Z,27.38
2022-12-11T22:26:26.842Z,28.98
2022-12-11T22:28:55.291Z,26.65
2022-12-11T22:31:25.366Z,23.75
2022-12-11T22:33:54.836Z,27.92
2022-12-11T22:36:27.106Z,23.83
2022-12-11T22:38:55.455Z,29.80
2022-12-11T22:41:30.096Z,25.42
2022-12-11T22:43:58.522Z,24.85
2022-12-11T22:46:30.270Z,30.42
2022-12-11T22:48:59.106Z,25.55
2022-12-11T22:51:26.549Z,25.73
2022-12-11T22:53:54.032Z,23.27
2022-12-11T22:56:21.494Z,24.50
2022-12-11T22:58:49.056Z,22.67
2022-12-11T23:01:21.273Z,31.52
2022-12-11T23:03:49.072Z,27.15
2022-12-11T23:06:19.812Z,26.45
2022-12-11T23:08:47.567Z,27.42
2022-12-11T23:11:22.141Z,29.27
2022-12-11T23:13:50.129Z,28.30
2022-12-11T23:16:18.621Z,29.73
2022-12-11T23:18:46.121Z,27.92
2022-12-11T23:21:14.389Z,26.42
2022-12-11T23:23:42.770Z,28.00
2022-12-11T23:26:14.535Z,27.92
2022-12-11T23:28:43.109Z,25.05
2022-12-11T23:31:11.468Z,26.73
2022-12-11T23:33:39.462Z,28.92
2022-12-11T23:36:07.575Z,26.15
2022-12-11T23:38:35.031Z,25.17
2022-12-11T23:41:03.636Z,29.40
2022-12-11T23:43:31.210Z,29.20
2022-12-11T23:45:58.723Z,26.40
2022-12-11T23:48:26.329Z,27.80
2022-12-11T23:50:58.007Z,26.42
2022-12-11T23:53:25.491Z,29.73
2022-12-11T23:55:52.963Z,27.17
2022-12-11T23:58:20.954Z,28.17
